createdAt,value
2023-02-23T00:00:01.245Z,21.08
2023-02-23T00:02:45.964Z,21.85
2023-02-23T00:05:19.880Z,21.98
2023-02-23T00:07:54.080Z,21.35
2023-02-23T00:10:30.620Z,19.20
2023-02-23T00:13:04.998Z,20.60
2023-02-23T00:15:37.110Z,21.38
2023-02-23T00:18:09.920Z,21.75
2023-02-23T00:20:48.517Z,23.80
2023-02-23T00:23:28.338Z,20.23
2023-02-23T00:26:05.102Z,29.27
2023-02-23T00:28:37.966Z,21.00
2023-02-23T00:31:12.029Z,22.80
2023-02-23T00:33:44.822Z,20.33
2023-02-23T00:36:17.025Z,23.58
2023-02-23T00:38:53.648Z,23.40
2023-02-23T00:41:31.212Z,22.48
2023-02-23T00:44:03.311Z,19.75
2023-02-23T00:46:35.304Z,19.02
2023-02-23T00:49:07.833Z,20.08
2023-02-23T00:51:41.907Z,21.00
2023-02-23T00:54:15.391Z,21.00
2023-02-23T00:56:48.875Z,22.42
2023-02-23T00:59:21.321Z,22.45
2023-02-23T01:01:53.863Z,19.48
2023-02-23T01:04:26.496Z,19.05
2023-02-23T01:06:58.589Z,19.85
2023-02-23T01:09:30.722Z,21.25
2023-02-23T01:12:07.298Z,22.20
2023-02-23T01:14:39.476Z,20.98
2023-02-23T01:17:13.604Z,19.15
2023-02-23T01:19:45.713Z,20.75
2023-02-23T01:22:17.677Z,19.60
2023-02-23T01:24:49.749Z,22.60
2023-02-23T01:27:21.728Z,19.75
2023-02-23T01:29:54.900Z,19.50
2023-02-23T01:32:27.101Z,19.83
2023-02-23T01:34:59.057Z,22.23
2023-02-23T01:37:35.360Z,22.83
2023-02-23T01:40:28.828Z,18.67
2023-02-23T01:43:13.893Z,21.80
2023-02-23T01:45:49.339Z,19.35
2023-02-23T01:48:34.358Z,17.75
2023-02-23T01:51:11.674Z,20.42
2023-02-23T01:53:55.931Z,21.15
2023-02-23T01:56:43.571Z,21.58
2023-02-23T01:59:18.662Z,25.33
2023-02-23T02:01:50.875Z,21.83
2023-02-23T02:04:25.312Z,21.88
2023-02-23T02:07:01.413Z,25.35
2023-02-23T02:09:55.063Z,20.73
2023-02-23T02:12:53.238Z,20.13
2023-02-23T02:15:32.643Z,25.73
2023-02-23T02:18:31.452Z,22.23
2023-02-23T02:21:41.579Z,24.60
2023-02-23T02:24:54.797Z,23.27
2023-02-23T02:28:11.397Z,22.63
2023-02-23T02:31:21.935Z,25.00
2023-02-23T02:34:34.013Z,25.05
2023-02-23T02:38:01.724Z,24.77
2023-02-23T02:40:54.782Z,23.52
2023-02-23T02:44:00.676Z,29.92
2023-02-23T02:46:48.858Z,31.67
2023-02-23T02:49:32.628Z,31.38
2023-02-23T02:52:30.822Z,25.33
2023-02-23T02:55:17.463Z,26.25
2023-02-23T02:57:57.040Z,27.23
2023-02-23T03:01:04.567Z,28.05
2023-02-23T03:04:15.893Z,28.02
2023-02-23T03:07:42.115Z,26.38
2023-02-23T03:11:00.426Z,26.23
2023-02-23T03:14:43.773Z,28.70
2023-02-23T03:18:04.022Z,26.58
2023-02-23T03:21:23.731Z,27.13
2023-02-23T03:24:56.409Z,34.78
2023-02-23T03:28:20.346Z,32.17
2023-02-23T03:32:07.085Z,27.88
2023-02-23T03:35:28.385Z,30.42
2023-02-23T03:38:43.396Z,24.02
2023-02-23T03:41:56.244Z,32.00
2023-02-23T03:45:09.543Z,30.08
2023-02-23T03:48:21.841Z,28.05
2023-02-23T03:51:38.651Z,28.17
2023-02-23T03:55:16.574Z,26.08
2023-02-23T03:58:30.277Z,27.25
2023-02-23T04:01:43.015Z,29.20
2023-02-23T04:04:54.765Z,26.15
2023-02-23T04:08:07.995Z,28.20
2023-02-23T04:11:50.508Z,28.35
2023-02-23T04:15:12.320Z,31.17
2023-02-23T04:17:56.777Z,30.15
2023-02-23T04:20:29.131Z,25.33
2023-02-23T04:23:02.018Z,29.20
2023-02-23T04:25:34.247Z,28.40
2023-02-23T04:28:06.296Z,28.90
2023-02-23T04:30:38.359Z,30.33
2023-02-23T04:33:10.695Z,29.98
2023-02-23T04:35:42.762Z,32.38
2023-02-23T04:38:14.943Z,27.77
2023-02-23T04:40:47.124Z,28.60
2023-02-23T04:43:19.346Z,26.92
2023-02-23T04:45:51.557Z,27.73
2023-02-23T04:48:25.176Z,24.45
2023-02-23T04:50:57.510Z,25.92
2023-02-23T04:53:29.532Z,25.63
2023-02-23T04:56:01.553Z,27.85
2023-02-23T04:58:33.812Z,29.70
2023-02-23T05:01:09.810Z,25.70
2023-02-23T05:03:42.058Z,27.02
2023-02-23T05:06:14.617Z,30.38
2023-02-23T05:08:47.919Z,27.00
2023-02-23T05:11:20.361Z,24.98
2023-02-23T05:13:53.239Z,26.77
2023-02-23T05:16:26.126Z,25.45
2023-02-23T05:18:58.894Z,26.95
2023-02-23T05:21:31.141Z,24.83
2023-02-23T05:24:03.316Z,23.95
2023-02-23T05:26:36.638Z,27.42
2023-02-23T05:29:08.721Z,27.05
2023-02-23T05:31:40.873Z,26.73
2023-02-23T05:34:12.966Z,28.30
2023-02-23T05:36:45.388Z,27.75
2023-02-23T05:39:17.352Z,25.52
2023-02-23T05:41:49.332Z,29.80
2023-02-23T05:44:21.512Z,29.33
2023-02-23T05:46:53.640Z,28.90
2023-02-23T05:49:25.644Z,27.38
2023-02-23T05:51:57.670Z,28.25
2023-02-23T05:54:29.621Z,24.17
2023-02-23T05:57:02.320Z,25.27
2023-02-23T05:59:34.621Z,26.20
2023-02-23T06:02:06.672Z,30.08
2023-02-23T06:04:38.693Z,27.17
2023-02-23T06:07:10.889Z,26.05
2023-02-23T06:09:44.614Z,27.90
2023-02-23T06:12:17.061Z,24.70
2023-02-23T06:14:50.748Z,29.75
2023-02-23T06:17:23.863Z,23.52
2023-02-23T06:19:55.858Z,29.88
2023-02-23T06:22:28.143Z,27.92
2023-02-23T06:25:00.112Z,26.48
2023-02-23T06:27:36.854Z,24.85
2023-02-23T06:30:11.400Z,25.13
2023-02-23T06:32:43.672Z,23.40
2023-02-23T06:35:15.810Z,23.15
2023-02-23T06:37:48.050Z,27.95
2023-02-23T06:40:20.636Z,23.58
2023-02-23T06:42:53.225Z,23.83
2023-02-23T06:45:25.358Z,23.23
2023-02-23T06:47:58.329Z,25.23
2023-02-23T06:50:31.557Z,25.65
2023-02-23T06:53:03.892Z,24.10
2023-02-23T06:55:36.172Z,26.08
2023-02-23T06:58:08.332Z,24.67
2023-02-23T07:00:42.975Z,33.70
2023-02-23T07:03:15.367Z,27.60
2023-02-23T07:05:47.369Z,25.77
2023-02-23T07:08:20.960Z,23.75
2023-02-23T07:10:53.247Z,23.27
2023-02-23T07:13:25.311Z,21.38
2023-02-23T07:15:58.606Z,24.92
2023-02-23T07:18:30.903Z,24.60
2023-02-23T07:21:03.415Z,28.92
2023-02-23T07:27:27.597Z,23.80
2023-02-23T07:29:59.636Z,22.77
2023-02-23T07:32:34.171Z,23.05
2023-02-23T07:35:07.064Z,24.83
2023-02-23T07:37:39.555Z,24.60
2023-02-23T07:40:13.579Z,19.58
2023-02-23T07:42:45.740Z,20.50
2023-02-23T07:45:17.991Z,24.98
2023-02-23T07:47:50.071Z,19.70
2023-02-23T07:50:22.096Z,17.05
2023-02-23T07:52:56.605Z,14.70
2023-02-23T07:55:28.713Z,13.50
2023-02-23T07:58:01.607Z,14.05
2023-02-23T08:00:35.225Z,14.10
2023-02-23T08:03:10.207Z,14.50
2023-02-23T08:05:44.850Z,13.88
2023-02-23T08:08:16.937Z,15.15
2023-02-23T08:10:50.021Z,14.07
2023-02-23T08:13:22.142Z,13.30
2023-02-23T08:15:54.111Z,13.82
2023-02-23T08:18:27.873Z,18.10
2023-02-23T08:21:04.144Z,16.55
2023-02-23T08:23:38.406Z,14.57
2023-02-23T08:26:27.351Z,16.00
2023-02-23T08:28:59.633Z,18.42
2023-02-23T08:31:32.133Z,17.35
2023-02-23T08:34:05.219Z,17.90
2023-02-23T08:36:37.834Z,14.55
2023-02-23T08:39:12.494Z,14.63
2023-02-23T08:41:44.733Z,17.38
2023-02-23T08:44:16.990Z,16.73
2023-02-23T08:46:50.336Z,15.90
2023-02-23T08:49:23.420Z,14.38
2023-02-23T08:51:56.277Z,14.95
2023-02-23T08:54:28.770Z,16.67
2023-02-23T08:57:01.482Z,15.00
2023-02-23T08:59:33.818Z,15.13
2023-02-23T09:02:08.537Z,17.48
2023-02-23T09:04:43.919Z,16.35
2023-02-23T09:07:17.711Z,14.50
2023-02-23T09:09:56.630Z,14.10
2023-02-23T09:12:29.122Z,13.05
2023-02-23T09:15:02.342Z,13.55
2023-02-23T09:17:34.965Z,14.02
2023-02-23T09:20:07.690Z,13.65
2023-02-23T09:22:48.918Z,13.63
2023-02-23T09:25:23.160Z,12.93
2023-02-23T09:28:02.604Z,12.25
2023-02-23T09:30:35.869Z,12.80
2023-02-23T09:33:09.116Z,13.27
2023-02-23T09:35:41.580Z,11.82
2023-02-23T09:38:13.780Z,11.25
2023-02-23T09:40:53.297Z,12.02
2023-02-23T09:43:42.610Z,11.32
2023-02-23T09:46:32.122Z,11.07
2023-02-23T09:49:20.354Z,8.60
2023-02-23T09:51:59.062Z,9.63
2023-02-23T09:54:35.188Z,11.55
2023-02-23T09:57:16.645Z,12.60
2023-02-23T09:59:54.111Z,14.70
2023-02-23T10:02:43.827Z,10.90
2023-02-23T10:06:01.737Z,12.38
2023-02-23T10:08:52.283Z,12.35
2023-02-23T10:11:53.259Z,8.65
2023-02-23T10:14:53.114Z,9.40
2023-02-23T10:17:47.911Z,14.63
2023-02-23T10:20:55.011Z,18.48
2023-02-23T10:23:48.053Z,9.57
2023-02-23T10:26:32.580Z,7.88
2023-02-23T10:29:29.614Z,7.95
2023-02-23T10:32:18.603Z,8.02
2023-02-23T10:35:17.314Z,8.15
2023-02-23T10:37:53.618Z,8.73
2023-02-23T10:40:28.984Z,8.60
2023-02-23T10:43:04.520Z,8.55
2023-02-23T10:45:44.677Z,7.90
2023-02-23T10:48:26.898Z,8.40
2023-02-23T10:51:06.574Z,6.40
2023-02-23T10:53:47.040Z,6.55
2023-02-23T10:56:38.065Z,6.97
2023-02-23T10:59:21.314Z,6.40
2023-02-23T11:02:02.357Z,8.02
2023-02-23T11:04:56.914Z,6.95
2023-02-23T11:07:33.278Z,5.80
2023-02-23T11:10:27.443Z,6.78
2023-02-23T11:12:59.602Z,6.00
2023-02-23T11:15:54.421Z,5.82
2023-02-23T11:18:31.972Z,7.03
2023-02-23T11:21:13.151Z,6.20
2023-02-23T11:23:58.977Z,5.88
2023-02-23T11:26:48.229Z,5.63
2023-02-23T11:29:28.065Z,4.90
2023-02-23T11:32:19.782Z,8.85
2023-02-23T11:35:21.899Z,4.65
2023-02-23T11:37:59.718Z,11.38
2023-02-23T11:41:04.862Z,8.15
2023-02-23T11:43:57.567Z,8.10
2023-02-23T11:46:35.291Z,4.05
2023-02-23T11:49:19.464Z,4.10
2023-02-23T11:51:59.431Z,4.15
2023-02-23T11:54:43.861Z,8.48
2023-02-23T11:57:26.566Z,5.28
2023-02-23T12:00:13.311Z,5.97
2023-02-23T12:03:00.923Z,6.72
2023-02-23T12:05:34.277Z,4.15
2023-02-23T12:08:34.419Z,4.32
2023-02-23T12:11:20.731Z,6.50
2023-02-23T12:14:18.841Z,9.00
2023-02-23T12:17:19.837Z,7.03
2023-02-23T12:20:06.778Z,11.75
2023-02-23T12:22:54.353Z,10.40
2023-02-23T12:26:00.737Z,6.93
2023-02-23T12:29:32.012Z,5.95
2023-02-23T12:32:18.220Z,9.35
2023-02-23T12:35:17.264Z,12.02
2023-02-23T12:38:19.301Z,6.85
2023-02-23T12:41:19.906Z,7.47
2023-02-23T12:44:38.902Z,6.15
2023-02-23T12:47:27.355Z,7.45
2023-02-23T12:50:17.919Z,9.02
2023-02-23T12:53:14.776Z,6.82
2023-02-23T12:56:16.351Z,6.80
2023-02-23T12:59:30.468Z,5.40
2023-02-23T13:02:39.191Z,5.45
2023-02-23T13:05:25.800Z,7.10
2023-02-23T13:08:29.427Z,5.93
2023-02-23T13:11:40.487Z,4.95
2023-02-23T13:14:48.178Z,7.35
2023-02-23T13:17:40.568Z,5.28
2023-02-23T13:20:33.639Z,4.70
2023-02-23T13:23:43.258Z,10.75
2023-02-23T13:27:20.674Z,7.32
2023-02-23T13:30:02.393Z,5.68
2023-02-23T13:32:39.219Z,5.30
2023-02-23T13:35:17.201Z,5.97
2023-02-23T13:38:00.010Z,6.55
2023-02-23T13:40:54.732Z,4.38
2023-02-23T13:43:53.192Z,5.72
2023-02-23T13:46:48.782Z,6.78
2023-02-23T13:49:55.121Z,12.07
2023-02-23T13:52:47.317Z,9.05
2023-02-23T13:55:26.407Z,6.05
2023-02-23T13:58:32.174Z,7.63
2023-02-23T14:01:17.325Z,8.48
2023-02-23T14:04:03.260Z,5.82
2023-02-23T14:06:40.256Z,5.50
2023-02-23T14:09:37.764Z,6.88
2023-02-23T14:12:32.806Z,8.05
2023-02-23T14:15:29.838Z,7.65
2023-02-23T14:18:25.899Z,5.68
2023-02-23T14:21:26.690Z,6.70
2023-02-23T14:24:27.866Z,9.77
2023-02-23T14:27:38.479Z,7.20
2023-02-23T14:30:21.194Z,10.30
2023-02-23T14:33:21.212Z,8.50
2023-02-23T14:36:25.674Z,6.10
2023-02-23T14:39:10.543Z,5.97
2023-02-23T14:41:54.368Z,7.60
2023-02-23T14:44:41.520Z,5.38
2023-02-23T14:47:23.940Z,6.40
2023-02-23T14:50:00.936Z,7.93
2023-02-23T14:52:40.672Z,13.05
2023-02-23T14:55:12.912Z,7.55
2023-02-23T14:57:54.106Z,6.70
2023-02-23T15:00:39.031Z,5.20
2023-02-23T15:03:13.879Z,6.82
2023-02-23T15:05:46.452Z,7.57
2023-02-23T15:08:28.964Z,8.88
2023-02-23T15:11:12.229Z,9.57
2023-02-23T15:13:51.917Z,9.07
2023-02-23T15:16:35.044Z,10.07
2023-02-23T15:19:07.738Z,10.25
2023-02-23T15:21:52.910Z,7.75
2023-02-23T15:24:32.605Z,9.15
2023-02-23T15:27:27.105Z,5.80
2023-02-23T15:30:31.766Z,7.68
2023-02-23T15:33:28.620Z,6.75
2023-02-23T15:36:14.632Z,8.98
2023-02-23T15:38:56.669Z,7.38
2023-02-23T15:41:36.060Z,8.30
2023-02-23T15:44:22.779Z,10.65
2023-02-23T15:47:28.576Z,6.63
2023-02-23T15:50:27.651Z,6.40
2023-02-23T15:53:49.183Z,7.25
2023-02-23T15:56:29.564Z,7.55
2023-02-23T15:59:24.018Z,8.80
2023-02-23T16:02:10.977Z,6.20
2023-02-23T16:04:49.946Z,13.05
2023-02-23T16:07:27.951Z,7.20
2023-02-23T16:10:27.291Z,10.90
2023-02-23T16:13:03.374Z,8.93
2023-02-23T16:15:38.145Z,8.57
2023-02-23T16:18:19.228Z,8.23
2023-02-23T16:21:01.755Z,11.43
2023-02-23T16:23:45.808Z,8.20
2023-02-23T16:26:30.460Z,6.40
2023-02-23T16:29:18.855Z,7.47
2023-02-23T16:32:03.401Z,8.88
2023-02-23T16:34:54.935Z,6.80
2023-02-23T16:37:31.399Z,10.02
2023-02-23T16:40:04.899Z,7.60
2023-02-23T16:42:39.616Z,8.27
2023-02-23T16:45:17.420Z,10.75
2023-02-23T16:47:51.874Z,7.78
2023-02-23T16:50:25.692Z,8.93
2023-02-23T16:53:02.222Z,12.55
2023-02-23T16:55:39.899Z,9.25
2023-02-23T16:58:21.791Z,11.00
2023-02-23T17:00:56.647Z,12.63
2023-02-23T17:03:32.670Z,9.15
2023-02-23T17:06:06.882Z,12.13
2023-02-23T17:08:45.927Z,12.48
2023-02-23T17:11:25.131Z,8.23
2023-02-23T17:13:58.617Z,13.00
2023-02-23T17:16:31.060Z,12.13
2023-02-23T17:19:03.374Z,10.82
2023-02-23T17:21:35.796Z,9.85
2023-02-23T17:24:08.204Z,10.23
2023-02-23T17:26:42.301Z,9.15
2023-02-23T17:29:15.340Z,10.65
2023-02-23T17:31:48.937Z,8.70
2023-02-23T17:34:21.719Z,11.88
2023-02-23T17:36:55.214Z,7.75
2023-02-23T17:39:28.403Z,7.07
2023-02-23T17:42:01.491Z,9.05
2023-02-23T17:44:35.022Z,9.02
2023-02-23T17:47:08.302Z,12.65
2023-02-23T17:49:41.967Z,8.40
2023-02-23T17:52:14.576Z,12.02
2023-02-23T17:54:46.971Z,8.20
2023-02-23T17:57:19.512Z,10.85
2023-02-23T17:59:54.405Z,8.13
2023-02-23T18:02:27.421Z,8.50
2023-02-23T18:05:00.298Z,10.52
2023-02-23T18:07:33.347Z,8.02
2023-02-23T18:10:07.008Z,8.35
2023-02-23T18:12:40.735Z,9.40
2023-02-23T18:15:13.986Z,10.70
2023-02-23T18:17:47.935Z,10.10
2023-02-23T18:20:20.919Z,12.30
2023-02-23T18:22:54.684Z,10.88
2023-02-23T18:25:29.231Z,8.15
2023-02-23T18:28:10.123Z,8.35
2023-02-23T18:30:45.104Z,11.00
2023-02-23T18:33:17.980Z,11.15
2023-02-23T18:35:50.955Z,14.32
2023-02-23T18:38:24.260Z,8.75
2023-02-23T18:40:57.582Z,10.85
2023-02-23T18:43:31.042Z,12.07
2023-02-23T18:46:11.179Z,12.98
2023-02-23T18:48:45.249Z,9.85
2023-02-23T18:51:23.037Z,11.85
2023-02-23T18:53:57.513Z,12.45
2023-02-23T18:56:32.130Z,13.18
2023-02-23T18:59:05.430Z,11.35
2023-02-23T19:01:38.943Z,10.73
2023-02-23T19:04:13.365Z,12.60
2023-02-23T19:06:47.749Z,10.30
2023-02-23T19:09:21.722Z,11.80
2023-02-23T19:11:54.931Z,16.17
2023-02-23T19:14:47.819Z,13.48
2023-02-23T19:17:22.515Z,10.25
2023-02-23T19:19:57.873Z,15.20
2023-02-23T19:22:32.170Z,11.45
2023-02-23T19:25:05.454Z,14.63
2023-02-23T19:27:39.637Z,12.23
2023-02-23T19:30:14.791Z,12.60
2023-02-23T19:32:49.006Z,12.82
2023-02-23T19:35:22.619Z,9.90
2023-02-23T19:37:58.709Z,11.48
2023-02-23T19:40:39.892Z,10.73
2023-02-23T19:43:16.305Z,14.27
2023-02-23T19:45:50.277Z,10.43
2023-02-23T19:48:26.055Z,12.93
2023-02-23T19:51:00.783Z,10.02
2023-02-23T19:53:34.179Z,9.82
2023-02-23T19:56:18.155Z,10.68
2023-02-23T19:58:52.559Z,10.50
2023-02-23T20:01:30.816Z,12.40
2023-02-23T20:04:06.733Z,9.93
2023-02-23T20:06:47.278Z,12.77
2023-02-23T20:09:20.809Z,12.15
2023-02-23T20:11:58.569Z,13.38
2023-02-23T20:14:33.456Z,12.80
2023-02-23T20:17:06.629Z,11.05
2023-02-23T20:19:41.215Z,11.75
2023-02-23T20:22:14.826Z,12.10
2023-02-23T20:24:50.503Z,14.30
2023-02-23T20:27:24.340Z,13.75
2023-02-23T20:30:00.693Z,10.68
2023-02-23T20:32:35.471Z,11.30
2023-02-23T20:35:11.585Z,12.68
2023-02-23T20:37:46.744Z,14.77
2023-02-23T20:40:23.455Z,11.98
2023-02-23T20:42:58.218Z,12.10
2023-02-23T20:45:31.723Z,16.13
2023-02-23T20:48:09.882Z,12.70
2023-02-23T20:50:43.119Z,14.00
2023-02-23T20:53:16.310Z,13.02
2023-02-23T20:55:50.621Z,16.15
2023-02-23T20:58:25.612Z,12.93
2023-02-23T21:01:07.337Z,22.33
2023-02-23T21:03:45.158Z,27.15
2023-02-23T21:06:21.463Z,20.35
2023-02-23T21:09:02.098Z,23.30
2023-02-23T21:11:50.707Z,18.02
2023-02-23T21:14:24.126Z,18.67
2023-02-23T21:16:57.244Z,19.77
2023-02-23T21:19:32.268Z,21.33
2023-02-23T21:22:05.077Z,23.27
2023-02-23T21:24:44.527Z,16.55
2023-02-23T21:27:17.478Z,18.20
2023-02-23T21:29:53.117Z,21.67
2023-02-23T21:32:34.630Z,17.33
2023-02-23T21:35:13.163Z,22.70
2023-02-23T21:37:47.723Z,21.50
2023-02-23T21:40:22.381Z,21.35
2023-02-23T21:42:56.859Z,23.90
2023-02-23T21:45:29.803Z,20.83
2023-02-23T21:48:04.592Z,22.20
2023-02-23T21:50:37.854Z,22.27
2023-02-23T21:53:12.960Z,20.65
2023-02-23T21:55:45.438Z,24.45
2023-02-23T21:58:18.418Z,19.13
2023-02-23T22:00:51.315Z,24.50
2023-02-23T22:03:24.021Z,21.92
2023-02-23T22:06:01.209Z,23.73
2023-02-23T22:08:36.529Z,21.40
2023-02-23T22:11:19.886Z,22.58
2023-02-23T22:14:00.375Z,21.50
2023-02-23T22:16:37.986Z,22.17
2023-02-23T22:19:12.750Z,18.42
2023-02-23T22:21:48.519Z,18.63
2023-02-23T22:24:21.832Z,19.08
2023-02-23T22:26:55.259Z,23.77
2023-02-23T22:29:27.875Z,22.73
2023-02-23T22:32:00.419Z,20.83
2023-02-23T22:34:32.795Z,17.95
2023-02-23T22:37:05.192Z,18.70
2023-02-23T22:39:42.411Z,21.42
2023-02-23T22:42:15.465Z,20.02
2023-02-23T22:44:48.258Z,21.85
2023-02-23T22:47:21.752Z,24.65
2023-02-23T22:49:55.012Z,21.70
2023-02-23T22:52:29.933Z,21.65
2023-02-23T22:55:04.045Z,25.08
2023-02-23T22:57:36.617Z,21.95
2023-02-23T23:00:15.175Z,20.20
2023-02-23T23:02:49.709Z,25.15
2023-02-23T23:05:22.408Z,22.25
2023-02-23T23:07:56.971Z,26.63
2023-02-23T23:10:30.501Z,25.80
2023-02-23T23:13:03.221Z,21.92
2023-02-23T23:15:35.940Z,21.50
2023-02-23T23:18:14.550Z,20.98
2023-02-23T23:20:55.403Z,20.60
2023-02-23T23:23:34.844Z,22.00
2023-02-23T23:26:14.771Z,27.67
2023-02-23T23:28:51.940Z,24.27
2023-02-23T23:31:32.271Z,22.15
2023-02-23T23:34:10.727Z,21.60
2023-02-23T23:36:53.166Z,21.67
2023-02-23T23:39:27.258Z,26.02
2023-02-23T23:42:01.748Z,25.08
2023-02-23T23:44:36.753Z,22.83
2023-02-23T23:47:09.044Z,24.60
2023-02-23T23:49:42.522Z,26.27
2023-02-23T23:52:17.791Z,29.88
2023-02-23T23:54:49.928Z,25.50
2023-02-23T23:57:23.079Z,24.45
2023-02-23T23:59:56.355Z,23.55
